Time;durP1;ratioP1;P1;durP2;ratioP2;P2;SDS_P1;SDS_P2;PMS_P1;PMS_P2;Temp;Humidity;BMP_temperature;BMP_pressure;BME280_temperature;BME280_humidity;BME280_pressure;Samples;Min_cycle;Max_cycle;Signal;HPM_P1;HPM_P2
2021/08/28 00:02:10;;;;;;;8.23;7.47;;;;;;;11.18;100.00;97914.63;5029597;28;20224;-68
2021/08/28 00:04:38;;;;;;;7.43;6.93;;;;;;;11.29;100.00;97916.91;5027962;28;20755;-67
2021/08/28 00:07:06;;;;;;;7.67;6.97;;;;;;;11.40;100.00;97921.00;5026981;28;20211;-67
2021/08/28 00:09:34;;;;;;;7.43;6.73;;;;;;;11.35;100.00;97916.22;5030785;28;20675;-68
2021/08/28 00:12:02;;;;;;;7.40;6.43;;;;;;;11.29;100.00;97907.13;5024731;28;20224;-69
2021/08/28 00:14:32;;;;;;;7.67;6.87;;;;;;;11.36;100.00;97911.75;5024601;28;20333;-68
2021/08/28 00:17:00;;;;;;;6.77;6.27;;;;;;;11.39;100.00;97912.25;5026649;28;20233;-66
2021/08/28 00:19:28;;;;;;;7.33;6.60;;;;;;;11.37;100.00;97914.25;5025923;28;20208;-68
2021/08/28 00:21:56;;;;;;;7.80;7.20;;;;;;;11.33;100.00;97915.56;5027371;28;20225;-68
2021/08/28 00:24:24;;;;;;;7.83;7.13;;;;;;;11.37;100.00;97916.06;5025463;28;20720;-68
2021/08/28 00:26:51;;;;;;;7.87;7.07;;;;;;;11.24;100.00;97909.47;5035484;28;20273;-69
2021/08/28 00:29:19;;;;;;;7.77;7.20;;;;;;;11.23;100.00;97914.94;5018280;28;20208;-68
2021/08/28 00:31:49;;;;;;;8.30;7.60;;;;;;;11.29;100.00;97919.53;5028651;28;20224;-68
2021/08/28 00:34:17;;;;;;;8.80;8.10;;;;;;;11.20;100.00;97916.13;5025317;28;20227;-68
2021/08/28 00:36:44;;;;;;;7.77;7.17;;;;;;;11.34;100.00;97919.03;5029293;28;20211;-68
2021/08/28 00:39:12;;;;;;;7.93;7.33;;;;;;;11.34;100.00;97916.41;5029526;28;20212;-68
2021/08/28 00:41:40;;;;;;;8.27;7.67;;;;;;;11.21;100.00;97915.13;5018266;28;20242;-67
2021/08/28 00:44:08;;;;;;;8.77;6.87;;;;;;;11.29;100.00;97915.09;5026940;28;20222;-68
2021/08/28 00:46:36;;;;;;;7.90;7.17;;;;;;;11.26;100.00;97914.59;5019732;28;20998;-66
2021/08/28 00:49:06;;;;;;;7.63;6.83;;;;;;;11.32;100.00;97918.41;5028621;28;20276;-68
2021/08/28 00:51:34;;;;;;;7.37;6.80;;;;;;;11.29;100.00;97924.84;5023331;28;20224;-68
2021/08/28 00:54:01;;;;;;;7.50;6.90;;;;;;;11.41;100.00;97922.66;5022576;28;20224;-68
2021/08/28 00:56:30;;;;;;;7.43;6.77;;;;;;;11.43;100.00;97916.22;5029278;28;20216;-68
2021/08/28 00:58:58;;;;;;;7.00;6.50;;;;;;;11.46;100.00;97912.38;5027275;28;20878;-68
2021/08/28 01:01:32;;;;;;;7.30;6.70;;;;;;;11.43;100.00;97912.72;5026736;28;20224;-68
2021/08/28 01:04:01;;;;;;;6.37;5.87;;;;;;;11.46;100.00;97920.31;5029840;28;20195;-68
2021/08/28 01:06:36;;;;;;;6.30;5.80;;;;;;;11.37;100.00;97918.72;5025434;28;21187;-68
2021/08/28 01:09:06;;;;;;;6.70;6.00;;;;;;;11.34;100.00;97924.34;5017585;28;20206;-67
2021/08/28 01:11:39;;;;;;;7.30;6.70;;;;;;;11.24;100.00;97921.88;5026658;28;20224;-68
2021/08/28 01:14:09;;;;;;;7.20;6.57;;;;;;;11.29;100.00;97923.03;5023667;28;20239;-69
2021/08/28 01:16:38;;;;;;;5.67;5.13;;;;;;;11.32;100.00;97918.41;5019142;28;20212;-69
2021/08/28 01:19:06;;;;;;;5.67;5.27;;;;;;;11.36;100.00;97917.88;5025492;28;20219;-68
2021/08/28 01:21:37;;;;;;;5.93;5.53;;;;;;;11.36;100.00;97923.16;5020169;28;20239;-69
2021/08/28 01:24:07;;;;;;;6.57;5.97;;;;;;;11.24;100.00;97920.06;5018807;28;20200;-68
2021/08/28 01:26:45;;;;;;;7.27;5.83;;;;;;;11.37;100.00;97919.53;5020101;28;20211;-68
2021/08/28 01:29:19;;;;;;;6.37;5.77;;;;;;;11.22;100.00;97930.03;5021026;28;20212;-69
2021/08/28 01:31:49;;;;;;;6.50;5.90;;;;;;;11.22;100.00;97932.69;5021522;28;20639;-69
2021/08/28 01:34:17;;;;;;;6.10;5.70;;;;;;;11.25;100.00;97927.03;5026983;28;20228;-68
2021/08/28 01:36:46;;;;;;;7.07;6.57;;;;;;;11.17;100.00;97928.88;5024330;28;20204;-69
2021/08/28 01:39:15;;;;;;;6.57;5.97;;;;;;;11.19;100.00;97933.03;5024340;28;20231;-69
2021/08/28 01:41:44;;;;;;;6.60;5.97;;;;;;;11.23;100.00;97930.84;5022362;28;20232;-69
2021/08/28 01:44:13;;;;;;;10.90;5.90;;;;;;;11.19;100.00;97925.06;5021921;28;20215;-69
2021/08/28 01:46:43;;;;;;;6.23;5.83;;;;;;;11.35;100.00;97926.81;5023654;28;20208;-69
2021/08/28 01:49:13;;;;;;;6.30;5.80;;;;;;;11.20;100.00;97928.53;5024143;28;20199;-68
2021/08/28 01:51:42;;;;;;;7.10;6.50;;;;;;;11.21;100.00;97922.22;5026768;28;20248;-68
2021/08/28 01:54:10;;;;;;;7.30;6.67;;;;;;;11.28;100.00;97917.91;5025705;28;20735;-68
2021/08/28 01:56:38;;;;;;;7.13;6.13;;;;;;;11.18;100.00;97925.22;5020799;28;20263;-68
2021/08/28 01:59:06;;;;;;;7.43;6.83;;;;;;;11.17;100.00;97923.56;5025055;28;20558;-68
2021/08/28 02:01:34;;;;;;;7.23;6.63;;;;;;;11.17;100.00;97908.47;5026368;28;20262;-69
2021/08/28 02:04:04;;;;;;;6.90;6.40;;;;;;;11.22;100.00;97918.59;5027706;28;20253;-68
2021/08/28 02:06:41;;;;;;;7.93;7.23;;;;;;;11.20;100.00;97923.22;5025551;28;20785;-68
2021/08/28 02:09:17;;;;;;;7.33;6.83;;;;;;;11.10;100.00;97923.41;5022624;28;20214;-67
2021/08/28 02:11:49;;;;;;;8.03;7.30;;;;;;;11.12;100.00;97927.56;5024650;28;20759;-69
2021/08/28 02:14:19;;;;;;;8.60;7.80;;;;;;;11.05;100.00;97923.09;5027545;28;20220;-68
2021/08/28 02:16:48;;;;;;;8.73;7.83;;;;;;;11.00;100.00;97926.28;5027240;28;20231;-68
2021/08/28 02:19:20;;;;;;;7.83;7.23;;;;;;;11.00;100.00;97931.56;5030014;28;20619;-68
2021/08/28 02:21:51;;;;;;;8.17;7.53;;;;;;;10.95;100.00;97923.25;5028574;28;20312;-68
2021/08/28 02:24:22;;;;;;;8.27;7.57;;;;;;;11.11;100.00;97920.59;5026817;28;20212;-68
2021/08/28 02:26:55;;;;;;;8.20;7.60;;;;;;;11.16;100.00;97928.03;5022846;28;20211;-69
2021/08/28 02:29:32;;;;;;;8.90;8.30;;;;;;;11.10;100.00;97929.56;5027738;28;20215;-68
2021/08/28 02:32:00;;;;;;;8.27;7.57;;;;;;;11.13;100.00;97925.72;5024617;28;20223;-69
2021/08/28 02:34:33;;;;;;;8.20;7.60;;;;;;;11.16;100.00;97930.69;5028403;28;20242;-69
2021/08/28 02:37:01;;;;;;;8.77;8.00;;;;;;;11.04;100.00;97929.41;5024420;28;20215;-68
2021/08/28 02:39:30;;;;;;;8.40;7.80;;;;;;;11.07;100.00;97923.75;5025990;28;20208;-69
2021/08/28 02:41:58;;;;;;;8.60;7.90;;;;;;;11.03;100.00;97925.94;5030604;28;20570;-69
2021/08/28 02:44:27;;;;;;;8.57;7.97;;;;;;;11.01;100.00;97925.28;5024697;28;20201;-69
2021/08/28 02:46:56;;;;;;;8.83;7.93;;;;;;;11.02;100.00;97926.09;5019505;28;20212;-68
2021/08/28 02:49:25;;;;;;;8.57;7.80;;;;;;;10.95;100.00;97929.41;5018598;28;20211;-69
2021/08/28 02:51:54;;;;;;;8.60;7.90;;;;;;;11.05;100.00;97929.25;5022258;28;20228;-68
2021/08/28 02:54:23;;;;;;;7.73;7.13;;;;;;;11.09;100.00;97927.91;5018531;28;20240;-69
2021/08/28 02:56:51;;;;;;;9.00;8.13;;;;;;;10.98;100.00;97923.78;5025337;28;20211;-69
2021/08/28 02:59:20;;;;;;;9.63;8.53;;;;;;;10.99;100.00;97917.47;5031096;28;20222;-69
2021/08/28 03:01:48;;;;;;;8.33;7.73;;;;;;;10.96;100.00;97922.28;5025083;28;20223;-70
2021/08/28 03:04:17;;;;;;;8.70;8.00;;;;;;;11.14;100.00;97928.22;5025670;28;20208;-69
2021/08/28 03:06:46;;;;;;;8.50;7.90;;;;;;;10.99;100.00;97922.78;5027863;28;20208;-69
2021/08/28 03:09:17;;;;;;;9.57;8.77;;;;;;;11.12;100.00;97927.56;5017032;28;20704;-67
2021/08/28 03:11:45;;;;;;;9.23;8.43;;;;;;;11.12;100.00;97926.72;5019618;28;20232;-68
2021/08/28 03:14:13;;;;;;;8.87;8.07;;;;;;;11.10;100.00;97928.72;5024122;28;20214;-69
2021/08/28 03:16:43;;;;;;;8.80;8.10;;;;;;;11.11;100.00;97925.06;5024620;28;20208;-69
2021/08/28 03:19:12;;;;;;;9.20;8.43;;;;;;;11.19;100.00;97933.03;5021889;28;20569;-69
2021/08/28 03:21:41;;;;;;;8.17;7.43;;;;;;;11.19;100.00;97925.06;5028731;28;20235;-69
2021/08/28 03:24:09;;;;;;;8.70;8.00;;;;;;;11.19;100.00;97921.56;5026053;28;20204;-69
2021/08/28 03:26:54;;;;;;;8.43;7.73;;;;;;;11.11;100.00;97919.75;5024638;28;20207;-68
2021/08/28 03:29:23;;;;;;;9.30;8.50;;;;;;;11.15;100.00;97921.06;5026276;28;20207;-68
2021/08/28 03:31:51;;;;;;;8.67;7.77;;;;;;;11.17;100.00;97916.41;5025939;28;20228;-69
2021/08/28 03:34:20;;;;;;;8.53;7.83;;;;;;;11.16;100.00;97917.41;5025266;28;20615;-69
2021/08/28 03:36:48;;;;;;;9.57;8.87;;;;;;;11.15;100.00;97918.41;5032888;28;20571;-69
2021/08/28 03:39:16;;;;;;;9.43;8.40;;;;;;;11.05;100.00;97923.09;5028938;28;20207;-68
2021/08/28 03:41:45;;;;;;;9.17;8.27;;;;;;;11.19;100.00;97925.06;5026656;28;20734;-69
2021/08/28 03:44:18;;;;;;;9.37;8.40;;;;;;;11.05;100.00;97921.28;5030321;28;20304;-69
2021/08/28 03:46:47;;;;;;;9.33;8.13;;;;;;;11.21;100.00;97919.56;5025867;28;20205;-70
2021/08/28 03:49:16;;;;;;;9.27;8.53;;;;;;;11.26;100.00;97922.53;5025244;28;20243;-68
2021/08/28 03:51:44;;;;;;;8.60;7.93;;;;;;;11.15;100.00;97919.25;5031123;28;20227;-69
2021/08/28 03:54:12;;;;;;;9.13;7.73;;;;;;;11.18;100.00;97914.63;5026041;28;20247;-70
2021/08/28 03:56:40;;;;;;;9.23;8.37;;;;;;;11.10;100.00;97920.75;5029264;28;20227;-70
2021/08/28 03:59:08;;;;;;;8.90;8.20;;;;;;;11.12;100.00;97921.41;5029055;28;20218;-69
2021/08/28 04:01:37;;;;;;;8.30;7.53;;;;;;;11.27;100.00;97921.53;5026470;28;20902;-70
2021/08/28 04:04:06;;;;;;;8.43;7.83;;;;;;;11.24;100.00;97924.53;5031454;28;20303;-69
2021/08/28 04:06:34;;;;;;;8.63;7.90;;;;;;;11.23;100.00;97921.06;5030036;28;20215;-70
2021/08/28 04:09:01;;;;;;;9.10;7.87;;;;;;;11.16;100.00;97928.03;5026370;28;20208;-70
2021/08/28 04:11:29;;;;;;;8.07;7.47;;;;;;;11.32;100.00;97921.84;5029193;28;20227;-68
2021/08/28 04:13:57;;;;;;;7.90;7.30;;;;;;;11.23;100.00;97929.03;5028541;28;20239;-68
2021/08/28 04:16:25;;;;;;;7.90;7.30;;;;;;;11.13;100.00;97933.69;5025361;28;20236;-68
2021/08/28 04:18:55;;;;;;;8.27;7.67;;;;;;;11.21;100.00;97933.69;5026416;28;20200;-68
2021/08/28 04:21:23;;;;;;;8.17;7.50;;;;;;;11.13;100.00;97929.22;5019444;28;20236;-67
2021/08/28 04:23:51;;;;;;;7.27;6.77;;;;;;;11.24;100.00;97933.34;5026715;28;20665;-69
2021/08/28 04:26:19;;;;;;;8.13;7.53;;;;;;;11.19;100.00;97935.69;5030136;28;20215;-68
2021/08/28 04:28:47;;;;;;;7.57;7.07;;;;;;;11.20;100.00;97928.53;5019677;28;20209;-69
2021/08/28 04:31:15;;;;;;;8.40;7.60;;;;;;;11.26;100.00;97926.03;5026389;28;20232;-68
2021/08/28 04:33:43;;;;;;;7.90;7.23;;;;;;;11.29;100.00;97940.78;5023270;28;20204;-68
2021/08/28 04:36:12;;;;;;;7.63;7.10;;;;;;;11.34;100.00;97937.63;5033552;28;20231;-69
2021/08/28 04:38:40;;;;;;;8.13;7.37;;;;;;;11.26;100.00;97931.34;5023723;28;20968;-70
2021/08/28 04:41:08;;;;;;;7.87;7.17;;;;;;;11.26;100.00;97939.31;5019134;28;20280;-69
2021/08/28 04:43:36;;;;;;;6.90;6.40;;;;;;;11.27;100.00;97946.25;5028704;28;20208;-70
2021/08/28 04:46:04;;;;;;;8.07;7.10;;;;;;;11.19;100.00;97948.09;5025226;28;20208;-69
2021/08/28 04:48:32;;;;;;;7.53;6.97;;;;;;;11.19;100.00;97951.59;5023261;28;20304;-69
2021/08/28 04:51:00;;;;;;;7.87;7.27;;;;;;;11.35;100.00;97950.69;5012289;28;20209;-69
2021/08/28 04:53:29;;;;;;;8.23;7.43;;;;;;;11.28;100.00;97953.22;5009889;28;20216;-67
2021/08/28 04:55:57;;;;;;;8.43;7.53;;;;;;;11.34;100.00;97948.22;5024078;28;20227;-69
2021/08/28 04:58:25;;;;;;;7.73;7.13;;;;;;;11.21;100.00;97949.59;5017338;28;20211;-70
2021/08/28 05:00:53;;;;;;;8.40;7.60;;;;;;;11.24;100.00;97954.56;5028969;28;20213;-68
2021/08/28 05:03:22;;;;;;;7.97;7.20;;;;;;;11.22;100.00;97951.25;5022542;28;20204;-70
2021/08/28 05:05:54;;;;;;;7.20;6.60;;;;;;;11.28;100.00;97957.69;5020665;28;20208;-67
2021/08/28 05:08:21;;;;;;;7.50;6.80;;;;;;;11.30;100.00;97953.03;5027590;28;20212;-68
2021/08/28 05:10:51;;;;;;;7.10;6.50;;;;;;;11.25;100.00;97956.22;5020538;28;20223;-68
2021/08/28 05:13:19;;;;;;;7.23;6.63;;;;;;;11.27;100.00;97958.69;5029650;28;21466;-67
2021/08/28 05:15:47;;;;;;;7.47;6.77;;;;;;;11.33;100.00;97968.63;5023581;28;20252;-68
2021/08/28 05:18:15;;;;;;;7.27;6.57;;;;;;;11.28;100.00;97958.53;5026283;28;20371;-69
2021/08/28 05:20:43;;;;;;;7.33;6.73;;;;;;;11.27;100.00;97964.84;5029466;28;20224;-68
2021/08/28 05:23:10;;;;;;;7.27;6.70;;;;;;;11.31;100.00;97964.50;5027493;28;20228;-70
2021/08/28 05:25:38;;;;;;;8.40;7.80;;;;;;;11.36;100.00;97967.47;5018827;28;20207;-67
2021/08/28 05:28:08;;;;;;;6.20;5.70;;;;;;;11.39;100.00;97967.97;5020433;28;20203;-68
2021/08/28 05:30:36;;;;;;;7.13;6.63;;;;;;;11.40;100.00;97966.97;5029178;28;20242;-68
2021/08/28 05:33:04;;;;;;;6.23;5.83;;;;;;;11.42;100.00;97964.97;5022754;28;20228;-70
2021/08/28 05:35:32;;;;;;;6.30;5.90;;;;;;;11.41;100.00;97963.31;5015909;28;20224;-68
2021/08/28 05:38:00;;;;;;;6.50;5.90;;;;;;;11.53;100.00;97962.94;5019799;28;20220;-68
2021/08/28 05:40:27;;;;;;;6.50;6.03;;;;;;;11.52;100.00;97961.28;5017198;28;20201;-67
2021/08/28 05:42:55;;;;;;;6.50;6.00;;;;;;;11.64;100.00;97964.41;5022663;28;20231;-68
2021/08/28 05:45:25;;;;;;;6.43;5.83;;;;;;;11.62;100.00;97969.06;5021417;28;20553;-67
2021/08/28 05:47:53;;;;;;;6.30;5.90;;;;;;;11.64;100.00;97980.31;5020912;28;20193;-67
2021/08/28 05:50:21;;;;;;;5.83;5.33;;;;;;;11.47;100.00;97974.25;5016890;28;20215;-67
2021/08/28 05:52:49;;;;;;;5.90;5.60;;;;;;;11.58;100.00;97968.56;5021757;28;20254;-69
2021/08/28 05:55:17;;;;;;;6.67;6.07;;;;;;;11.67;100.00;97970.16;5019866;28;20291;-68
2021/08/28 05:57:45;;;;;;;6.03;5.57;;;;;;;11.58;100.00;97968.56;5017753;28;20252;-70
2021/08/28 06:00:14;;;;;;;6.70;6.20;;;;;;;11.73;100.00;97973.97;5017440;28;20216;-69
2021/08/28 06:02:43;;;;;;;6.17;5.60;;;;;;;11.65;100.00;97969.53;5017593;28;20231;-69
2021/08/28 06:05:12;;;;;;;6.37;5.77;;;;;;;11.74;100.00;97967.66;5016402;28;20900;-69
2021/08/28 06:07:40;;;;;;;5.87;5.47;;;;;;;11.75;100.00;97974.63;5016824;28;20209;-68
2021/08/28 06:10:09;;;;;;;6.27;5.77;;;;;;;11.83;100.00;97965.81;5019129;28;20218;-69
2021/08/28 06:12:37;;;;;;;5.40;5.10;;;;;;;11.93;100.00;97965.59;5014165;28;20778;-68
2021/08/28 06:15:06;;;;;;;5.40;5.03;;;;;;;12.00;100.00;97972.72;5011557;28;20212;-71
2021/08/28 06:17:35;;;;;;;5.00;4.60;;;;;;;12.04;100.00;97972.38;5013765;28;20231;-70
2021/08/28 06:20:05;;;;;;;6.70;5.27;;;;;;;12.00;100.00;97977.19;5013830;28;20204;-70
2021/08/28 06:22:33;;;;;;;5.40;5.00;;;;;;;12.00;100.00;97975.38;5007445;28;20235;-68
2021/08/28 06:25:01;;;;;;;5.10;4.80;;;;;;;12.06;100.00;97976.53;5021505;28;20307;-68
2021/08/28 06:27:29;;;;;;;4.67;4.40;;;;;;;12.08;100.00;97974.53;5019249;28;20207;-68
2021/08/28 06:29:57;;;;;;;4.80;4.50;;;;;;;12.04;100.00;97978.53;5022448;28;20215;-69
2021/08/28 06:32:25;;;;;;;5.70;5.23;;;;;;;12.21;100.00;97983.75;5008166;28;20229;-67
2021/08/28 06:34:53;;;;;;;5.50;5.10;;;;;;;12.26;100.00;97979.56;5016821;28;20204;-69
2021/08/28 06:37:22;;;;;;;4.80;4.50;;;;;;;12.12;100.00;97981.13;5009105;28;20236;-69
2021/08/28 06:39:50;;;;;;;5.20;4.73;;;;;;;12.32;100.00;97978.06;5013115;28;20204;-69
2021/08/28 06:42:18;;;;;;;5.20;4.70;;;;;;;12.37;100.00;97973.03;5020722;28;20688;-70
2021/08/28 06:44:46;;;;;;;6.03;5.10;;;;;;;12.49;100.00;97981.41;5014415;28;20227;-68
2021/08/28 06:47:14;;;;;;;5.43;5.03;;;;;;;12.52;100.00;97975.75;5020760;28;20207;-72
2021/08/28 06:49:42;;;;;;;4.40;4.20;;;;;;;12.59;100.00;97981.19;5016114;28;20243;-71
2021/08/28 06:52:10;;;;;;;4.43;4.13;;;;;;;12.69;100.00;97973.81;5012924;28;20235;-71
2021/08/28 06:54:39;;;;;;;4.77;4.40;;;;;;;12.76;100.00;97975.75;5016007;28;20216;-70
2021/08/28 06:57:07;;;;;;;4.37;4.07;;;;;;;12.81;100.00;97976.84;5020305;28;20216;-71
2021/08/28 06:59:35;;;;;;;3.83;3.63;;;;;;;12.79;100.00;97970.88;5021581;28;20999;-69
2021/08/28 07:02:03;;;;;;;3.47;3.27;;;;;;;12.70;100.00;97975.47;5016978;28;20220;-70
2021/08/28 07:04:31;;;;;;;3.03;2.87;;;;;;;12.88;100.00;97977.81;5019885;28;20211;-69
2021/08/28 07:06:59;;;;;;;3.30;3.20;;;;;;;12.82;100.00;97980.34;5019048;28;20860;-69
2021/08/28 07:09:27;;;;;;;4.00;3.80;;;;;;;12.67;100.00;97978.44;5017596;28;20222;-68
2021/08/28 07:11:56;;;;;;;3.33;3.03;;;;;;;12.84;100.00;97973.03;5024723;28;20224;-68
2021/08/28 07:14:24;;;;;;;3.30;3.20;;;;;;;12.72;100.00;97978.78;5022453;28;20627;-69
2021/08/28 07:16:52;;;;;;;3.20;3.00;;;;;;;12.66;100.00;97975.97;5027145;28;20227;-69
2021/08/28 07:19:21;;;;;;;3.27;3.00;;;;;;;12.72;100.00;97976.09;5015346;28;20556;-69
2021/08/28 07:21:49;;;;;;;3.03;2.93;;;;;;;12.55;100.00;97985.19;5013300;28;20240;-67
2021/08/28 07:24:17;;;;;;;3.30;3.13;;;;;;;12.34;100.00;97984.00;5022203;28;20219;-67
2021/08/28 07:26:45;;;;;;;3.77;3.47;;;;;;;12.50;100.00;97984.91;5024152;28;20211;-68
2021/08/28 07:29:14;;;;;;;2.90;2.80;;;;;;;12.52;100.00;97980.22;5020451;28;20211;-68
2021/08/28 07:31:42;;;;;;;2.87;2.77;;;;;;;12.50;100.00;97988.41;5020172;28;20228;-69
2021/08/28 07:34:10;;;;;;;3.10;2.90;;;;;;;12.60;100.00;97988.16;5023619;28;20219;-68
2021/08/28 07:36:38;;;;;;;3.30;3.10;;;;;;;12.70;100.00;97982.59;5022212;28;20204;-68
2021/08/28 07:39:06;;;;;;;3.20;3.00;;;;;;;12.86;100.00;97982.44;5024865;28;20315;-68
2021/08/28 07:41:34;;;;;;;4.33;2.70;;;;;;;12.71;100.00;97987.75;5024107;28;20239;-68
2021/08/28 07:44:02;;;;;;;2.73;2.63;;;;;;;12.83;100.00;97987.31;5023441;28;20204;-69
2021/08/28 07:46:32;;;;;;;4.33;2.80;;;;;;;12.92;100.00;97988.09;5026263;28;20234;-70
2021/08/28 07:49:00;;;;;;;2.93;2.73;;;;;;;13.06;100.00;97981.97;5039406;28;20199;-72
2021/08/28 07:51:28;;;;;;;3.37;2.93;;;;;;;13.07;100.00;97991.59;5039626;28;20234;-72
2021/08/28 07:53:56;;;;;;;3.40;3.10;;;;;;;13.02;100.00;97991.31;5045438;28;20297;-72
2021/08/28 07:56:23;;;;;;;2.93;2.73;;;;;;;13.10;100.00;97993.09;5046141;28;20212;-71
2021/08/28 07:58:51;;;;;;;3.70;3.50;;;;;;;12.94;100.00;97994.88;5043575;28;20825;-72
2021/08/28 08:01:19;;;;;;;2.80;2.60;;;;;;;12.92;100.00;97993.41;5040349;28;20246;-72
2021/08/28 08:03:49;;;;;;;2.70;2.57;;;;;;;13.09;100.00;97991.44;5040487;28;20291;-73
2021/08/28 08:06:17;;;;;;;2.87;2.77;;;;;;;13.02;100.00;97992.13;5038977;28;20226;-72
2021/08/28 08:08:46;;;;;;;3.57;3.27;;;;;;;13.00;100.00;97996.81;5043730;28;20200;-72
2021/08/28 08:11:15;;;;;;;3.10;2.80;;;;;;;12.88;100.00;97995.59;5055925;28;20223;-71
2021/08/28 08:13:43;;;;;;;3.73;3.53;;;;;;;12.92;100.00;97996.88;5053415;28;20199;-72
2021/08/28 08:16:11;;;;;;;2.93;2.73;;;;;;;12.87;100.00;97997.41;5047753;28;20203;-72
2021/08/28 08:18:39;;;;;;;2.97;2.87;;;;;;;12.81;100.00;98000.78;5047463;28;20227;-72
2021/08/28 08:21:09;;;;;;;3.10;2.90;;;;;;;13.06;100.00;97997.09;5048872;28;20210;-71
2021/08/28 08:23:37;;;;;;;6.30;3.33;;;;;;;13.27;100.00;97994.56;5042521;28;20223;-72
2021/08/28 08:26:05;;;;;;;3.00;2.80;;;;;;;13.22;100.00;97994.28;5050866;28;21513;-71
2021/08/28 08:28:32;;;;;;;3.27;2.97;;;;;;;13.35;100.00;98001.66;5048075;28;20203;-71
2021/08/28 08:31:00;;;;;;;3.00;2.90;;;;;;;13.37;100.00;98002.31;5050425;28;20647;-72
2021/08/28 08:33:28;;;;;;;4.20;2.90;;;;;;;13.36;100.00;97997.16;5045461;28;20243;-71
2021/08/28 08:35:56;;;;;;;2.83;2.63;;;;;;;13.44;100.00;97991.75;5047660;28;20204;-72
2021/08/28 08:38:26;;;;;;;2.60;2.40;;;;;;;13.43;100.00;97998.94;5052416;28;20289;-72
2021/08/28 08:40:53;;;;;;;3.30;3.10;;;;;;;13.42;100.00;97994.63;5048010;28;20208;-71
2021/08/28 08:43:22;;;;;;;3.20;2.77;;;;;;;13.50;100.00;97999.03;5046954;28;20893;-71
2021/08/28 08:45:50;;;;;;;3.57;3.17;;;;;;;13.57;100.00;97999.97;5044482;28;20215;-72
2021/08/28 08:48:19;;;;;;;3.03;2.83;;;;;;;13.70;100.00;97991.34;5045246;28;20207;-71
2021/08/28 08:50:47;;;;;;;3.83;3.53;;;;;;;14.08;100.00;97990.38;5048087;28;20211;-72
2021/08/28 08:53:17;;;;;;;2.90;2.70;;;;;;;14.33;100.00;97990.84;5048942;28;20208;-72
2021/08/28 08:55:47;;;;;;;2.70;2.50;;;;;;;14.39;100.00;97996.44;5050342;28;20208;-72
2021/08/28 08:58:15;;;;;;;3.03;2.83;;;;;;;14.57;100.00;97988.00;5043114;28;20223;-73
2021/08/28 09:00:43;;;;;;;3.80;2.30;;;;;;;14.74;100.00;97993.97;5052720;28;20258;-71
2021/08/28 09:03:11;;;;;;;2.70;2.50;;;;;;;14.88;100.00;97992.25;5047430;28;20215;-72
2021/08/28 09:05:40;;;;;;;2.20;2.03;;;;;;;14.80;100.00;97989.72;5044367;28;20220;-72
2021/08/28 09:08:08;;;;;;;2.20;2.10;;;;;;;14.65;100.00;97993.25;5048048;28;20203;-71
2021/08/28 09:10:35;;;;;;;2.90;2.67;;;;;;;14.57;100.00;97998.69;5042743;28;20204;-71
2021/08/28 09:13:16;;;;;;;2.47;2.37;;;;;;;14.36;100.00;97997.66;5049539;28;20821;-72
2021/08/28 09:15:46;;;;;;;3.73;2.30;;;;;;;14.47;100.00;97986.50;5042249;28;20203;-71
2021/08/28 09:18:28;;;;;;;2.17;2.00;;;;;;;14.59;100.00;97986.00;5046484;28;20231;-71
2021/08/28 09:20:57;;;;;;;3.03;2.80;;;;;;;14.51;100.00;97988.78;5046540;28;20207;-71
2021/08/28 09:23:25;;;;;;;3.00;2.80;;;;;;;14.52;100.00;97983.25;5037122;28;20215;-72
2021/08/28 09:25:54;;;;;;;2.40;2.30;;;;;;;14.62;100.00;97986.44;5027482;28;20771;-72
2021/08/28 09:28:34;;;;;;;3.27;3.07;;;;;;;14.94;100.00;97990.66;5043275;28;20247;-71
2021/08/28 09:31:04;;;;;;;3.00;2.80;;;;;;;15.11;100.00;97986.69;5046608;28;20299;-72
2021/08/28 09:33:35;;;;;;;2.90;2.60;;;;;;;14.98;100.00;97986.59;5042586;28;20219;-72
2021/08/28 09:36:03;;;;;;;3.03;2.70;;;;;;;14.99;100.00;97980.22;5045345;28;20203;-71
2021/08/28 09:38:38;;;;;;;2.90;2.70;;;;;;;14.96;100.00;97980.63;5042932;28;20235;-71
2021/08/28 09:41:06;;;;;;;3.23;3.03;;;;;;;15.08;100.00;97980.91;5042773;28;20235;-70
2021/08/28 09:43:35;;;;;;;2.80;2.60;;;;;;;15.22;100.00;97977.31;5042333;28;20203;-71
2021/08/28 09:46:09;;;;;;;2.80;2.60;;;;;;;15.47;100.00;97975.03;5043065;28;20204;-71
2021/08/28 09:48:39;;;;;;;2.50;2.40;;;;;;;15.63;100.00;97971.22;5046101;28;20555;-70
2021/08/28 09:51:09;;;;;;;2.67;2.53;;;;;;;15.67;100.00;97968.13;5044013;28;20272;-70
2021/08/28 09:53:43;;;;;;;2.43;2.17;;;;;;;15.65;100.00;97970.19;5046043;28;20231;-72
2021/08/28 09:56:11;;;;;;;2.53;2.33;;;;;;;15.85;100.00;97964.94;5041224;28;20203;-73
2021/08/28 09:58:41;;;;;;;2.50;2.40;;;;;;;15.86;100.00;97959.41;5046807;28;20218;-72
2021/08/28 10:01:09;;;;;;;2.70;2.50;;;;;;;15.82;100.00;97958.16;5049230;28;20199;-72
2021/08/28 10:03:38;;;;;;;2.80;2.60;;;;;;;15.99;100.00;97958.69;5039697;28;20209;-71
2021/08/28 10:06:06;;;;;;;2.87;2.57;;;;;;;16.01;100.00;97961.13;5050976;28;20216;-71
2021/08/28 10:08:34;;;;;;;4.20;2.90;;;;;;;15.46;100.00;97962.69;5045543;28;20211;-72
2021/08/28 10:11:03;;;;;;;2.67;2.57;;;;;;;15.16;100.00;97964.75;5047321;28;20203;-71
2021/08/28 10:13:34;;;;;;;2.60;2.50;;;;;;;15.16;100.00;97970.09;5043979;28;20219;-72
2021/08/28 10:16:04;;;;;;;2.80;2.60;;;;;;;15.33;100.00;97968.75;5044335;28;20207;-72
2021/08/28 10:18:34;;;;;;;2.93;2.30;;;;;;;15.92;100.00;97963.19;5048487;28;20230;-72
2021/08/28 10:21:03;;;;;;;2.37;2.27;;;;;;;16.39;100.00;97959.81;5049732;28;20210;-72
2021/08/28 10:23:36;;;;;;;2.50;2.30;;;;;;;16.27;100.00;97955.03;5040959;28;20207;-71
2021/08/28 10:26:05;;;;;;;2.17;1.97;;;;;;;16.28;100.00;97961.22;5046815;28;20733;-73
2021/08/28 10:28:33;;;;;;;2.27;2.17;;;;;;;16.56;100.00;97950.38;5045628;28;20207;-71
2021/08/28 10:31:02;;;;;;;2.33;2.13;;;;;;;16.65;100.00;97951.00;5048018;28;20203;-72
2021/08/28 10:33:31;;;;;;;2.27;2.17;;;;;;;16.06;100.00;97948.81;5046415;28;20216;-71
2021/08/28 10:35:59;;;;;;;6.20;1.70;;;;;;;15.72;100.00;97952.34;5044929;28;20211;-71
2021/08/28 10:38:29;;;;;;;2.30;2.10;;;;;;;15.62;100.00;97961.53;5043700;28;20298;-71
2021/08/28 10:40:57;;;;;;;2.13;1.93;;;;;;;15.56;100.00;97954.31;5044816;28;20203;-71
2021/08/28 10:43:26;;;;;;;1.70;1.60;;;;;;;15.56;100.00;97958.84;5050613;28;20214;-72
2021/08/28 10:45:54;;;;;;;2.17;2.00;;;;;;;15.67;100.00;97962.81;5042771;28;20199;-70
2021/08/28 10:48:22;;;;;;;2.27;2.00;;;;;;;15.71;100.00;97961.38;5039370;28;20751;-70
2021/08/28 10:50:53;;;;;;;2.40;2.30;;;;;;;15.79;100.00;97955.91;5042511;28;20202;-70
2021/08/28 10:53:24;;;;;;;2.40;2.13;;;;;;;15.85;100.00;97956.94;5040103;28;20211;-71
2021/08/28 10:55:51;;;;;;;1.93;1.83;;;;;;;15.91;100.00;97964.19;5032500;28;20212;-70
2021/08/28 10:58:21;;;;;;;1.90;1.80;;;;;;;16.40;100.00;97956.94;5038115;28;20208;-71
2021/08/28 11:00:51;;;;;;;2.10;2.00;;;;;;;16.79;100.00;97957.19;5043636;28;20223;-70
2021/08/28 11:03:27;;;;;;;2.57;2.37;;;;;;;17.01;100.00;97954.34;5041617;28;20946;-70
2021/08/28 11:06:27;;;;;;;2.00;1.90;;;;;;;17.15;100.00;97966.69;5039083;28;20219;-70
2021/08/28 11:08:56;;;;;;;2.00;1.90;;;;;;;17.39;100.00;97959.03;5016906;28;21012;-71
2021/08/28 11:11:29;;;;;;;2.00;1.90;;;;;;;18.00;95.41;97953.50;5042678;28;20223;-70
2021/08/28 11:13:59;;;;;;;2.13;1.87;;;;;;;18.40;91.89;97955.19;5043612;28;20204;-72
2021/08/28 11:16:55;;;;;;;1.20;1.20;;;;;;;18.45;79.18;97956.19;5041750;28;20207;-72
2021/08/28 11:19:35;;;;;;;0.90;0.90;;;;;;;17.78;82.54;97962.63;5033823;28;20237;-70
2021/08/28 11:22:07;;;;;;;1.20;1.20;;;;;;;16.82;92.62;97958.63;5039418;28;20254;-71
2021/08/28 11:24:35;;;;;;;1.10;1.10;;;;;;;16.14;100.00;97961.19;5039208;28;20208;-71
2021/08/28 11:27:05;;;;;;;1.53;1.37;;;;;;;15.47;100.00;97967.00;5048876;28;20210;-70
2021/08/28 11:29:49;;;;;;;1.40;1.40;;;;;;;15.04;100.00;97967.97;5042700;28;20199;-70
2021/08/28 11:32:18;;;;;;;1.00;1.00;;;;;;;14.51;100.00;97972.78;5044206;28;20228;-70
2021/08/28 11:34:48;;;;;;;1.10;1.10;;;;;;;14.32;100.00;97981.19;5042689;28;20200;-70